Saeby, Denmark
Current Conditions -  °F | °C
As of 5:20 PM on Tuesday 21 Oct 2014 (Local Time) from EKYT Reporting Station
Light Rain Light Rain  
Wind Chill: 55°   Ceiling: 9000
Heat Index: 55°   Visibility: 6mi
Dew Point: 54°   Wind: 16mph
Humidity: 94%   Direction: 130°SE
Pressure: 29.32"   Gusts: NA
Location:  57.33°N, 10.52°E
Report Text: EKYT 211520Z 13014KT 9999 -RA SCT012 BKN090 13/12 Q0993
Loading
Personal Weather Stations






























Interactive Weather Map
Tropical Storm Tracking
New forecast layout! Learn more

10-Day Weather Forecast

Advertisements
Track Severe Weather on mobile